Airfield :
LOGIN :

Register | Disclaimer

   EN    FR    IT 

 










Legend :    VFR   Marginal VFR   IFR   Intensive IFR   Very Intensive IFR
Visi :
Ceiling :
>= 8 km
>= 3000ft
5 to 8 km
1000 to 3000 ft
1500m to 5 km
500 to 1000 ft
800 to 1500m
200 to 500 ft
< 800m
< 200 ft
Symbols :   Thunderstorms  Fog  Heavy snow  Heavy precipitations  Wind > 20 kt
SIGMETs :     Misc.  Thunderstorms  Icing  Turbulence  Mountain Waves  Volcanic Ashes






- Airport Elevation : 1470 ft


LSMD - Dubendorf Military

CURRENT METAR :
  • 011220Z VRB02KT 9999 OVC015 04/01 Q1020 RMK WHT

EXPIRED METARs :
  • 011150Z AUTO 09004KT 040V140 9999NDV OVC015 03/00 Q1020 RMK
  • 011120Z AUTO VRB03KT 9999NDV BKN014 OVC019 03/00 Q1021 RMK
  • 011050Z 09003KT 020V160 9999 OVC014 03/00 Q1021 RMK GRN
  • 011020Z 09004KT 050V120 9999 BKN015 OVC020 03/00 Q1021 RMK WHT
  • 010950Z 08005KT 010V130 6000 BKN015 OVC027 03/M00 Q1021 RMK WHT

Expired Forecast.



MET'MAP, your aeronautical weather chart ! - Copyright ORBIFLY December 2007 - Disclaimer

ORBIFLY MET'MAP TEAM :

Programming & Development : Alexandra Zaïnal
Original concept : Baudouin d'Aumeries
Technical & hardware support : Manuel Goepfert
Assistance : Marc-Olivier Méhu




SOURCES & CREDITS :

   NOAA